Hefei Luogang International

Airport
ICAO code: 
ZSOF
IATA Code: 
HFE
Summary
ICAO Region: 
APAC
Territory: 
Location: 
Gaoliu, Anhui,
Serving: 
Hefei
Elevation: 
33 ft
Coordinates: 
Aerial View: 
31° 46' 46.715" N, 117° 18' 27.238" E
Metar
Observation
ZSOF 040500Z 15003MPS 120V190 CAVOK 16/M08 Q1027 NOSIG
Station
Hefei
Date/Time
2021-12-04 05:00:00
Wind direction
150°
Lowest cloud amount
clouds and visibility OK
Temperature
16°C
Dew point
-8°C
Humidity
18%
QNH
1027 hPa
Weather condition
n/a

Description

Hefei Xinqiao International Airport is the main airport serving Hefei, the capital of Anhui Province, China. It is located near the town of Gaoliu in Feixi County, 31.8 kilometers from the city center.

Climatology

Humid subtropical climate (Köppen climate classification Cfa.) Hot muggy summers with frequent thunderstorms. Winters are mild and precipitation during this season comes from mid-latitude cyclones. This climate type is quite common on the east coasts of continents.

Runways

Designator Length Width Surface Rops
14/32 3000 50 CON Yes/Yes
Airport map: 
Aerial View: 

SKYbrary Partners:

Safety knowledge contributed by: